Main page
METAR-TAF:

METAR-TAF

Airports :

Ioannina National Airport

Ioannina, Greece

latitude: 39-41-47N, longitude: 20-49-21E, elevation: 475 m

Current weather observation

The report was made 21 minutes ago, at 16:50 UTC
Temperature 19°C
Humidity 64%
Pressure 1016 hPa
Visibility 10 km or more
Few clouds at a height of 3500 ft

METAR: LGIO 171650Z /////KT 9999 FEW035 19/12 Q1016

Time: 20:11 (17:11 UTC)

Forecast

The report was made 3 hours and 11 minutes ago, at 14:00 UTC
Forecast valid from 17 at 15 UTC to 17 at 24 UTC
Wind 3 kt from variable directions
Visibility 10 km or more
Few clouds at a height of 2500 ft

TAF: LGIO 171400Z 1715/1724 VRB03KT 9999 FEW025

Weather observations and forecasts of more than 4000 airports (METAR and TAF reports).

The available stations are represented by yellow and red dots on the map.

Hover mouse over dot to see the name of the station.

Then click to see weather observations and forecasts.

To change the map : click on the green buttons with a black cross to zoom in, on the green button with a dash to zoom out, or on the green arrows for adjacent maps.


METAR-TAF: